createdAt,value
2018-11-03T00:01:05.510Z,1.72
2018-11-03T00:03:34.065Z,1.75
2018-11-03T00:06:03.781Z,1.70
2018-11-03T00:08:32.324Z,1.63
2018-11-03T00:11:00.942Z,1.67
2018-11-03T00:13:29.468Z,1.64
2018-11-03T00:15:57.986Z,1.57
2018-11-03T00:18:26.553Z,1.58
2018-11-03T00:20:55.080Z,1.65
2018-11-03T00:23:23.643Z,1.70
2018-11-03T00:25:52.206Z,1.63
2018-11-03T00:28:22.388Z,1.53
2018-11-03T00:30:50.925Z,1.67
2018-11-03T00:33:19.450Z,1.51
2018-11-03T00:35:48.061Z,1.46
2018-11-03T00:38:16.670Z,1.45
2018-11-03T00:40:45.253Z,1.37
2018-11-03T00:43:13.880Z,1.45
2018-11-03T00:45:42.399Z,1.49
2018-11-03T00:48:10.949Z,1.43
2018-11-03T00:50:39.489Z,1.34
2018-11-03T00:53:08.308Z,1.28
2018-11-03T00:55:36.854Z,1.23
2018-11-03T00:58:06.282Z,1.27
2018-11-03T01:00:35.237Z,1.26
2018-11-03T01:03:07.848Z,1.24
2018-11-03T01:05:36.402Z,1.27
2018-11-03T01:08:05.688Z,1.26
2018-11-03T01:10:34.273Z,1.25
2018-11-03T01:13:05.980Z,1.16
2018-11-03T01:15:34.854Z,1.17
2018-11-03T01:18:05.619Z,1.12
2018-11-03T01:20:34.572Z,1.10
2018-11-03T01:23:04.515Z,1.13
2018-11-03T01:25:33.067Z,1.24
2018-11-03T01:28:03.535Z,1.42
2018-11-03T01:30:32.159Z,1.41
2018-11-03T01:33:00.780Z,1.26
2018-11-03T01:35:29.345Z,1.19
2018-11-03T01:37:57.907Z,1.31
2018-11-03T01:40:26.435Z,1.29
2018-11-03T01:42:55.315Z,1.36
2018-11-03T01:45:23.864Z,1.34
2018-11-03T01:47:52.413Z,1.38
2018-11-03T01:50:20.942Z,1.39
2018-11-03T01:52:49.482Z,1.43
2018-11-03T01:55:18.041Z,1.43
2018-11-03T01:57:46.570Z,1.38
2018-11-03T02:00:15.140Z,1.28
2018-11-03T02:02:43.799Z,1.48
2018-11-03T02:05:12.419Z,1.40
2018-11-03T02:07:41.301Z,1.37
2018-11-03T02:10:12.648Z,1.34
2018-11-03T02:12:41.631Z,1.26
2018-11-03T02:15:10.572Z,1.22
2018-11-03T02:17:39.934Z,1.25
2018-11-03T02:20:09.662Z,1.22
2018-11-03T02:22:38.783Z,1.24
2018-11-03T02:25:07.571Z,1.25
2018-11-03T02:27:36.099Z,1.16
2018-11-03T02:30:05.900Z,1.20
2018-11-03T02:32:34.444Z,1.17
2018-11-03T02:35:05.143Z,1.18
2018-11-03T02:37:33.987Z,1.06
2018-11-03T02:40:04.040Z,1.07
2018-11-03T02:42:32.542Z,1.26
2018-11-03T02:45:02.882Z,1.25
2018-11-03T02:47:31.587Z,1.14
2018-11-03T02:50:00.133Z,1.07
2018-11-03T02:52:28.652Z,1.08
2018-11-03T02:54:57.521Z,1.03
2018-11-03T02:57:26.051Z,1.01
2018-11-03T02:59:55.053Z,0.95
2018-11-03T03:02:23.601Z,0.94
2018-11-03T03:04:52.139Z,0.92
2018-11-03T03:07:20.691Z,1.02
2018-11-03T03:09:49.569Z,1.16
2018-11-03T03:12:18.077Z,1.12
2018-11-03T03:14:46.577Z,1.06
2018-11-03T03:17:15.103Z,1.04
2018-11-03T03:19:43.636Z,0.96
2018-11-03T03:22:12.167Z,0.92
2018-11-03T03:24:40.721Z,0.91
2018-11-03T03:27:09.432Z,0.99
2018-11-03T03:29:38.510Z,0.87
2018-11-03T03:32:07.084Z,0.82
2018-11-03T03:34:36.373Z,0.93
2018-11-03T03:37:05.776Z,0.89
2018-11-03T03:39:34.367Z,0.87
2018-11-03T03:42:04.499Z,1.32
2018-11-03T03:44:33.040Z,1.50
2018-11-03T03:47:03.698Z,1.50
2018-11-03T03:49:32.422Z,1.65
2018-11-03T03:52:00.976Z,1.70
2018-11-03T03:54:29.530Z,1.68
2018-11-03T03:56:58.052Z,1.71
2018-11-03T03:59:27.279Z,1.64
2018-11-03T04:01:55.866Z,1.46
2018-11-03T04:04:24.376Z,1.43
2018-11-03T04:06:52.902Z,1.29
2018-11-03T04:09:21.461Z,1.10
2018-11-03T04:11:50.061Z,1.07
2018-11-03T04:14:18.593Z,1.13
2018-11-03T04:16:47.333Z,1.28
2018-11-03T04:19:15.893Z,1.24
2018-11-03T04:21:44.439Z,1.08
2018-11-03T04:24:12.942Z,0.98
2018-11-03T04:26:41.791Z,0.94
2018-11-03T04:29:10.713Z,1.02
2018-11-03T04:31:39.228Z,1.21
2018-11-03T04:34:07.786Z,1.24
2018-11-03T04:36:36.766Z,1.12
2018-11-03T04:39:06.606Z,1.07
2018-11-03T04:41:35.118Z,1.12
2018-11-03T04:44:05.184Z,1.01
2018-11-03T04:46:34.059Z,1.08
2018-11-03T04:49:04.604Z,1.10
2018-11-03T04:51:34.743Z,1.00
2018-11-03T04:54:05.325Z,0.94
2018-11-03T04:56:33.882Z,0.89
2018-11-03T04:59:04.405Z,0.94
2018-11-03T05:01:33.348Z,0.91
2018-11-03T05:04:02.760Z,0.96
2018-11-03T05:06:31.340Z,0.85
2018-11-03T05:08:59.865Z,0.86
2018-11-03T05:11:34.475Z,0.94
2018-11-03T05:14:05.339Z,0.99
2018-11-03T05:16:33.922Z,1.02
2018-11-03T05:19:04.484Z,1.13
2018-11-03T05:21:32.998Z,1.10
2018-11-03T05:24:03.197Z,1.19
2018-11-03T05:26:31.834Z,1.25
2018-11-03T05:29:00.476Z,1.30
2018-11-03T05:31:29.041Z,1.33
2018-11-03T05:33:57.599Z,1.35
2018-11-03T05:36:26.218Z,1.44
2018-11-03T05:38:54.770Z,1.56
2018-11-03T05:41:23.609Z,1.52
2018-11-03T05:43:52.108Z,1.48
2018-11-03T05:46:20.680Z,1.52
2018-11-03T05:48:49.633Z,1.56
2018-11-03T05:51:18.154Z,1.51
2018-11-03T05:53:46.721Z,1.55
2018-11-03T05:56:15.270Z,1.54
2018-11-03T05:58:44.075Z,1.49
2018-11-03T06:01:12.692Z,1.39
2018-11-03T06:03:41.750Z,1.28
2018-11-03T06:06:10.585Z,1.45
2018-11-03T06:08:39.429Z,1.47
2018-11-03T06:11:07.956Z,1.53
2018-11-03T06:13:36.742Z,1.56
2018-11-03T06:16:06.471Z,1.57
2018-11-03T06:18:35.010Z,1.59
2018-11-03T06:21:05.342Z,1.55
2018-11-03T06:23:33.977Z,1.60
2018-11-03T06:26:05.305Z,1.74
2018-11-03T06:28:33.877Z,1.74
2018-11-03T06:31:04.242Z,1.64
2018-11-03T06:33:32.856Z,1.50
2018-11-03T06:36:03.169Z,1.56
2018-11-03T06:38:31.676Z,1.41
2018-11-03T06:41:00.262Z,1.43
2018-11-03T06:43:28.888Z,1.45
2018-11-03T06:45:57.688Z,1.45
2018-11-03T06:48:26.224Z,1.43
2018-11-03T06:50:54.759Z,1.47
2018-11-03T06:53:23.367Z,1.68
2018-11-03T06:55:52.392Z,1.83
2018-11-03T06:58:20.937Z,1.87
2018-11-03T07:00:49.495Z,1.85
2018-11-03T07:03:18.123Z,2.04
2018-11-03T07:05:46.658Z,2.07
2018-11-03T07:08:16.206Z,2.07
2018-11-03T07:10:44.815Z,2.23
2018-11-03T07:13:13.974Z,2.23
2018-11-03T07:15:42.756Z,2.30
2018-11-03T07:18:15.909Z,2.28
2018-11-03T07:20:46.197Z,2.30
2018-11-03T07:23:14.759Z,2.29
2018-11-03T07:25:44.002Z,2.39
2018-11-03T07:28:12.544Z,2.33
2018-11-03T07:30:41.117Z,2.31
2018-11-03T07:33:09.942Z,2.38
2018-11-03T07:35:38.495Z,2.54
2018-11-03T07:38:07.290Z,2.58
2018-11-03T07:40:37.305Z,2.54
2018-11-03T07:43:06.248Z,2.55
2018-11-03T07:45:34.791Z,2.64
2018-11-03T07:48:04.858Z,2.76
2018-11-03T07:50:33.415Z,2.72
2018-11-03T07:53:03.775Z,2.73
2018-11-03T07:55:32.341Z,2.71
2018-11-03T07:58:00.863Z,2.74
2018-11-03T08:00:29.446Z,2.80
2018-11-03T08:02:58.016Z,2.94
2018-11-03T08:05:26.729Z,2.89
2018-11-03T08:07:55.307Z,2.98
2018-11-03T08:10:23.819Z,3.16
2018-11-03T08:12:52.458Z,3.36
2018-11-03T08:15:20.980Z,3.25
2018-11-03T08:17:49.525Z,3.33
2018-11-03T08:20:18.260Z,3.46
2018-11-03T08:22:46.930Z,3.62
2018-11-03T08:25:15.456Z,3.80
2018-11-03T08:27:44.084Z,3.89
2018-11-03T08:30:14.037Z,4.01
2018-11-03T08:32:43.172Z,4.08
2018-11-03T08:35:12.506Z,4.08
2018-11-03T08:37:41.287Z,4.15
2018-11-03T08:40:12.266Z,4.25
2018-11-03T08:42:41.294Z,4.34
2018-11-03T08:45:10.361Z,4.51
2018-11-03T08:47:38.930Z,4.59
2018-11-03T08:50:10.063Z,4.67
2018-11-03T08:52:38.589Z,4.73
2018-11-03T08:55:08.415Z,4.84
2018-11-03T08:57:37.009Z,4.97
2018-11-03T09:00:11.097Z,5.02
2018-11-03T09:02:39.821Z,5.12
2018-11-03T09:05:09.114Z,5.17
2018-11-03T09:07:38.250Z,5.32
2018-11-03T09:10:08.860Z,5.50
2018-11-03T09:12:37.511Z,5.57
2018-11-03T09:15:07.732Z,5.59
2018-11-03T09:17:37.430Z,5.66
2018-11-03T09:20:07.178Z,5.71
2018-11-03T09:22:36.641Z,5.80
2018-11-03T09:25:08.537Z,5.84
2018-11-03T09:27:37.468Z,5.84
2018-11-03T09:30:08.042Z,5.89
2018-11-03T09:32:36.607Z,5.66
2018-11-03T09:35:06.678Z,6.02
2018-11-03T09:37:35.574Z,6.09
2018-11-03T09:40:06.333Z,6.16
2018-11-03T09:42:34.881Z,6.19
2018-11-03T09:45:06.082Z,6.26
2018-11-03T09:47:34.815Z,6.28
2018-11-03T09:50:04.728Z,6.36
2018-11-03T09:52:44.079Z,6.26
2018-11-03T09:55:16.909Z,6.42
2018-11-03T09:57:45.526Z,6.46
2018-11-03T10:00:17.017Z,6.59
2018-11-03T10:02:45.732Z,6.68
2018-11-03T10:05:15.160Z,6.58
2018-11-03T10:07:43.802Z,6.47
2018-11-03T10:10:15.091Z,6.69
2018-11-03T10:12:43.693Z,6.84
2018-11-03T10:15:13.682Z,6.93
2018-11-03T10:17:43.836Z,7.07
2018-11-03T10:20:12.401Z,7.18
2018-11-03T10:22:41.031Z,7.18
2018-11-03T10:25:15.239Z,7.36
2018-11-03T10:27:44.489Z,7.58
2018-11-03T10:30:14.462Z,7.60
2018-11-03T10:32:43.503Z,7.68
2018-11-03T10:35:12.757Z,7.83
2018-11-03T10:37:41.798Z,7.95
2018-11-03T10:40:13.895Z,8.09
2018-11-03T10:42:43.208Z,8.13
2018-11-03T10:45:13.052Z,8.19
2018-11-03T10:47:41.879Z,8.34
2018-11-03T10:50:15.141Z,8.45
2018-11-03T10:52:44.662Z,8.38
2018-11-03T10:55:14.973Z,8.41
2018-11-03T10:57:43.834Z,8.52
2018-11-03T11:00:19.190Z,8.62
2018-11-03T11:02:53.065Z,8.71
2018-11-03T11:05:27.143Z,8.90
2018-11-03T11:08:03.144Z,8.91
2018-11-03T11:10:37.701Z,8.94
2018-11-03T11:13:22.574Z,9.19
2018-11-03T11:15:53.214Z,9.19
2018-11-03T11:18:22.095Z,9.11
2018-11-03T11:20:50.612Z,9.27
2018-11-03T11:23:19.265Z,9.09
2018-11-03T11:25:47.947Z,9.31
2018-11-03T11:28:16.464Z,9.43
2018-11-03T11:30:45.584Z,9.53
2018-11-03T11:33:15.311Z,9.72
2018-11-03T11:35:43.874Z,9.40
2018-11-03T11:38:13.319Z,9.64
2018-11-03T11:40:42.236Z,9.75
2018-11-03T11:43:11.702Z,9.74
2018-11-03T11:45:40.702Z,9.27
2018-11-03T11:48:09.462Z,9.77
2018-11-03T11:50:38.150Z,10.28
2018-11-03T11:53:06.958Z,9.89
2018-11-03T11:55:35.527Z,10.29
2018-11-03T11:58:05.595Z,10.52
2018-11-03T12:00:34.230Z,11.30
2018-11-03T12:03:04.579Z,12.79
2018-11-03T12:05:33.182Z,13.15
2018-11-03T12:08:02.860Z,13.88
2018-11-03T12:10:31.736Z,14.20
2018-11-03T12:13:00.250Z,13.80
2018-11-03T12:15:28.816Z,14.56
2018-11-03T12:17:57.910Z,14.86
2018-11-03T12:20:26.873Z,12.85
2018-11-03T12:22:55.599Z,12.41
2018-11-03T12:25:24.604Z,11.69
2018-11-03T12:27:53.167Z,11.48
2018-11-03T12:30:21.980Z,12.19
2018-11-03T12:32:50.543Z,11.80
2018-11-03T12:35:19.192Z,11.13
2018-11-03T12:37:47.764Z,11.70
2018-11-03T12:40:16.660Z,11.25
2018-11-03T12:42:45.213Z,10.82
2018-11-03T12:45:14.569Z,11.76
2018-11-03T12:47:43.433Z,11.46
2018-11-03T12:50:16.845Z,11.72
2018-11-03T12:52:45.591Z,11.18
2018-11-03T12:55:14.424Z,10.86
2018-11-03T12:57:43.428Z,10.70
2018-11-03T13:00:13.806Z,10.98
2018-11-03T13:02:43.340Z,11.11
2018-11-03T13:05:12.016Z,11.30
2018-11-03T13:07:41.828Z,11.77
2018-11-03T13:10:11.235Z,13.18
2018-11-03T13:12:40.414Z,13.51
2018-11-03T13:15:10.022Z,14.10
2018-11-03T13:17:39.188Z,13.85
2018-11-03T13:20:09.344Z,14.12
2018-11-03T13:22:38.053Z,14.57
2018-11-03T13:25:08.187Z,15.05
2018-11-03T13:27:36.724Z,13.72
2018-11-03T13:30:05.823Z,12.37
2018-11-03T13:32:34.320Z,11.61
2018-11-03T13:35:04.937Z,11.16
2018-11-03T13:37:33.353Z,11.28
2018-11-03T13:40:03.217Z,11.21
2018-11-03T13:42:33.694Z,12.88
2018-11-03T13:45:04.205Z,11.68
2018-11-03T13:47:32.999Z,11.96
2018-11-03T13:50:04.028Z,12.76
2018-11-03T13:52:33.232Z,11.93
2018-11-03T13:55:06.174Z,10.95
2018-11-03T13:57:36.296Z,12.14
2018-11-03T14:00:06.094Z,11.57
2018-11-03T14:02:34.878Z,11.86
2018-11-03T14:05:05.830Z,11.32
2018-11-03T14:07:34.421Z,10.98
2018-11-03T14:10:05.175Z,10.71
2018-11-03T14:12:33.674Z,11.13
2018-11-03T14:15:04.794Z,11.07
2018-11-03T14:17:33.373Z,11.17
2018-11-03T14:20:03.282Z,11.12
2018-11-03T14:22:31.837Z,11.32
2018-11-03T14:25:00.487Z,11.36
2018-11-03T14:27:29.137Z,10.72
2018-11-03T14:29:57.696Z,10.51
2018-11-03T14:32:26.292Z,10.21
2018-11-03T14:34:54.828Z,10.54
2018-11-03T14:37:23.448Z,10.59
2018-11-03T14:39:51.991Z,10.33
2018-11-03T14:42:20.486Z,10.23
2018-11-03T14:44:49.146Z,10.01
2018-11-03T14:47:18.049Z,9.80
2018-11-03T14:49:46.625Z,9.70
2018-11-03T14:52:15.442Z,9.57
2018-11-03T14:54:47.911Z,9.49
2018-11-03T14:57:16.652Z,9.47
2018-11-03T14:59:45.216Z,9.51
2018-11-03T15:02:14.570Z,9.33
2018-11-03T15:04:43.211Z,9.41
2018-11-03T15:07:11.869Z,9.09
2018-11-03T15:09:40.897Z,8.93
2018-11-03T15:12:09.505Z,9.00
2018-11-03T15:14:38.687Z,8.89
2018-11-03T15:17:07.442Z,8.87
2018-11-03T15:19:35.972Z,8.84
2018-11-03T15:22:05.861Z,8.70
2018-11-03T15:24:34.567Z,8.59
2018-11-03T15:27:05.322Z,8.63
2018-11-03T15:29:33.890Z,8.42
2018-11-03T15:32:03.780Z,8.27
2018-11-03T15:34:32.344Z,8.22
2018-11-03T15:37:03.338Z,8.08
2018-11-03T15:39:32.269Z,8.01
2018-11-03T15:42:03.219Z,7.81
2018-11-03T15:44:32.067Z,7.61
2018-11-03T15:47:00.620Z,7.56
2018-11-03T15:49:29.524Z,7.34
2018-11-03T15:51:58.121Z,7.15
2018-11-03T15:54:26.620Z,7.14
2018-11-03T15:56:57.275Z,7.10
2018-11-03T15:59:25.909Z,7.13
2018-11-03T16:01:54.487Z,6.99
2018-11-03T16:04:23.070Z,6.86
2018-11-03T16:06:51.629Z,6.60
2018-11-03T16:09:20.152Z,6.64
2018-11-03T16:11:48.713Z,6.58
2018-11-03T16:14:17.262Z,6.42
2018-11-03T16:16:45.773Z,6.36
2018-11-03T16:19:14.365Z,6.28
2018-11-03T16:21:42.865Z,6.20
2018-11-03T16:24:11.427Z,6.30
2018-11-03T16:26:39.984Z,6.15
2018-11-03T16:29:08.480Z,6.09
2018-11-03T16:31:37.030Z,6.08
2018-11-03T16:34:06.413Z,6.13
2018-11-03T16:36:35.429Z,6.07
2018-11-03T16:39:08.400Z,5.99
2018-11-03T16:41:37.019Z,5.83
2018-11-03T16:44:05.535Z,5.60
2018-11-03T16:46:34.101Z,5.59
2018-11-03T16:49:03.860Z,5.56
2018-11-03T16:51:32.363Z,5.39
2018-11-03T16:54:00.922Z,5.29
2018-11-03T16:56:29.453Z,5.18
2018-11-03T16:58:58.101Z,5.17
2018-11-03T17:01:26.881Z,5.00
2018-11-03T17:03:55.463Z,4.90
2018-11-03T17:06:23.994Z,4.81
2018-11-03T17:08:52.528Z,4.76
2018-11-03T17:11:21.173Z,4.75
2018-11-03T17:13:49.698Z,4.58
2018-11-03T17:16:18.479Z,4.52
2018-11-03T17:18:47.189Z,4.41
2018-11-03T17:21:15.685Z,4.33
2018-11-03T17:23:44.207Z,4.30
2018-11-03T17:26:12.953Z,4.24
2018-11-03T17:28:41.811Z,4.23
2018-11-03T17:31:10.626Z,4.21
2018-11-03T17:33:39.107Z,4.14
2018-11-03T17:36:07.645Z,4.09
2018-11-03T17:38:36.216Z,3.95
2018-11-03T17:41:05.299Z,3.88
2018-11-03T17:43:33.877Z,3.82
2018-11-03T17:46:04.606Z,3.77
2018-11-03T17:48:33.144Z,3.79
2018-11-03T17:51:03.086Z,3.71
2018-11-03T17:53:31.682Z,3.67
2018-11-03T17:56:00.350Z,3.63
2018-11-03T17:58:28.908Z,3.68
2018-11-03T18:00:57.622Z,3.57
2018-11-03T18:03:26.234Z,3.51
2018-11-03T18:05:54.763Z,3.44
2018-11-03T18:08:23.322Z,3.34
2018-11-03T18:10:51.832Z,3.30
2018-11-03T18:13:20.474Z,3.28
2018-11-03T18:15:48.966Z,3.23
2018-11-03T18:18:17.471Z,3.20
2018-11-03T18:20:46.009Z,3.24
2018-11-03T18:23:14.579Z,3.30
2018-11-03T18:25:43.600Z,3.19
2018-11-03T18:28:12.507Z,3.23
2018-11-03T18:30:41.268Z,3.17
2018-11-03T18:33:10.269Z,3.09
2018-11-03T18:35:38.950Z,3.02
2018-11-03T18:38:07.634Z,2.98
2018-11-03T18:40:36.210Z,2.93
2018-11-03T18:43:05.877Z,2.95
2018-11-03T18:45:35.419Z,2.90
2018-11-03T18:48:05.898Z,2.89
2018-11-03T18:50:34.407Z,2.83
2018-11-03T18:53:05.107Z,2.77
2018-11-03T18:55:33.749Z,2.82
2018-11-03T18:58:03.958Z,2.77
2018-11-03T19:00:32.540Z,2.75
2018-11-03T19:03:03.154Z,2.70
2018-11-03T19:05:31.687Z,2.60
2018-11-03T19:08:00.353Z,2.65
2018-11-03T19:10:29.808Z,2.60
2018-11-03T19:12:59.401Z,2.56
2018-11-03T19:15:29.705Z,2.57
2018-11-03T19:17:58.294Z,2.54
2018-11-03T19:20:26.824Z,2.52
2018-11-03T19:22:55.382Z,2.50
2018-11-03T19:25:23.918Z,2.45
2018-11-03T19:27:52.534Z,2.38
2018-11-03T19:30:21.222Z,2.35
2018-11-03T19:32:49.677Z,2.35
2018-11-03T19:35:18.404Z,2.31
2018-11-03T19:37:46.925Z,2.28
2018-11-03T19:40:15.541Z,2.22
2018-11-03T19:42:44.148Z,2.18
2018-11-03T19:45:13.326Z,2.12
2018-11-03T19:47:41.936Z,2.09
2018-11-03T19:50:10.901Z,2.08
2018-11-03T19:52:39.510Z,2.03
2018-11-03T19:55:08.243Z,2.00
2018-11-03T19:57:36.802Z,2.00
2018-11-03T20:00:07.488Z,1.97
2018-11-03T20:02:36.488Z,2.01
2018-11-03T20:05:05.893Z,1.99
2018-11-03T20:07:34.590Z,1.94
2018-11-03T20:10:05.497Z,1.99
2018-11-03T20:12:35.149Z,1.97
2018-11-03T20:15:07.357Z,1.93
2018-11-03T20:17:36.050Z,1.89
2018-11-03T20:20:06.388Z,1.91
2018-11-03T20:22:34.909Z,1.91
2018-11-03T20:25:05.998Z,1.92
2018-11-03T20:27:34.700Z,1.92
2018-11-03T20:30:05.956Z,1.92
2018-11-03T20:32:34.542Z,2.00
2018-11-03T20:35:04.793Z,2.02
2018-11-03T20:37:33.402Z,1.95
2018-11-03T20:40:11.629Z,2.01
2018-11-03T20:42:40.177Z,2.06
2018-11-03T20:45:09.211Z,1.98
2018-11-03T20:47:38.380Z,1.95
2018-11-03T20:50:08.673Z,1.87
2018-11-03T20:52:37.389Z,1.84
2018-11-03T20:55:06.907Z,1.80
2018-11-03T20:57:35.528Z,1.78
2018-11-03T21:00:10.418Z,1.92
2018-11-03T21:02:39.084Z,1.82
2018-11-03T21:05:08.812Z,1.87
2018-11-03T21:07:37.573Z,1.88
2018-11-03T21:10:06.439Z,1.80
2018-11-03T21:12:35.999Z,1.82
2018-11-03T21:15:05.485Z,1.80
2018-11-03T21:17:34.062Z,1.78
2018-11-03T21:20:04.185Z,1.84
2018-11-03T21:22:32.761Z,1.81
2018-11-03T21:25:03.432Z,1.94
2018-11-03T21:27:31.990Z,1.86
2018-11-03T21:30:00.612Z,1.84
2018-11-03T21:32:29.281Z,1.87
2018-11-03T21:34:57.812Z,2.16
2018-11-03T21:37:26.441Z,2.00
2018-11-03T21:39:55.136Z,1.88
2018-11-03T21:42:23.687Z,1.94
2018-11-03T21:44:52.301Z,1.89
2018-11-03T21:47:20.960Z,1.81
2018-11-03T21:49:49.519Z,1.75
2018-11-03T21:52:18.043Z,1.72
2018-11-03T21:54:46.834Z,1.95
2018-11-03T21:57:15.358Z,2.16
2018-11-03T21:59:43.895Z,2.07
2018-11-03T22:02:12.468Z,2.01
2018-11-03T22:04:41.354Z,1.96
2018-11-03T22:07:10.721Z,1.88
2018-11-03T22:09:39.276Z,1.77
2018-11-03T22:12:08.933Z,1.78
2018-11-03T22:14:37.440Z,1.79
2018-11-03T22:17:06.180Z,1.87
2018-11-03T22:19:34.969Z,1.92
2018-11-03T22:22:06.163Z,1.93
2018-11-03T22:24:34.676Z,1.84
2018-11-03T22:27:06.789Z,1.77
2018-11-03T22:29:35.751Z,1.69
2018-11-03T22:32:06.555Z,1.62
2018-11-03T22:34:35.145Z,1.56
2018-11-03T22:37:05.547Z,1.46
2018-11-03T22:39:34.125Z,1.37
2018-11-03T22:42:03.729Z,1.34
2018-11-03T22:44:33.536Z,1.28
2018-11-03T22:47:05.237Z,1.21
2018-11-03T22:49:33.852Z,1.23
2018-11-03T22:52:07.808Z,1.23
2018-11-03T22:54:37.678Z,1.22
2018-11-03T22:57:06.244Z,1.26
2018-11-03T22:59:34.975Z,1.21
2018-11-03T23:02:06.743Z,1.17
2018-11-03T23:04:35.427Z,1.13
2018-11-03T23:07:05.740Z,1.04
2018-11-03T23:09:34.370Z,1.19
2018-11-03T23:12:06.302Z,1.20
2018-11-03T23:14:34.926Z,1.22
2018-11-03T23:17:05.704Z,1.20
2018-11-03T23:19:34.292Z,1.15
2018-11-03T23:22:04.526Z,1.13
2018-11-03T23:24:33.824Z,1.07
2018-11-03T23:27:03.810Z,1.01
2018-11-03T23:29:32.403Z,0.95
2018-11-03T23:32:00.913Z,0.94
2018-11-03T23:34:29.476Z,0.92
2018-11-03T23:36:58.021Z,0.91
2018-11-03T23:39:26.617Z,0.90
2018-11-03T23:41:55.133Z,0.82
2018-11-03T23:44:24.047Z,0.79
2018-11-03T23:46:53.167Z,0.79
2018-11-03T23:49:21.875Z,0.77
2018-11-03T23:51:52.531Z,0.79
2018-11-03T23:54:21.340Z,0.76
2018-11-03T23:56:49.927Z,1.03
2018-11-03T23:59:18.489Z,1.14
